createdAt,value
2018-06-12T00:02:14.552Z,15.42
2018-06-12T00:04:42.875Z,15.41
2018-06-12T00:07:11.189Z,15.41
2018-06-12T00:09:39.511Z,15.41
2018-06-12T00:12:07.252Z,15.39
2018-06-12T00:14:36.206Z,15.40
2018-06-12T00:17:04.530Z,15.40
2018-06-12T00:19:32.867Z,15.38
2018-06-12T00:22:00.614Z,15.46
2018-06-12T00:24:29.521Z,15.48
2018-06-12T00:26:57.267Z,15.49
2018-06-12T00:29:26.168Z,15.53
2018-06-12T00:31:54.491Z,15.56
2018-06-12T00:34:22.236Z,15.57
2018-06-12T00:36:50.558Z,15.54
2018-06-12T00:39:19.455Z,15.55
2018-06-12T00:41:47.780Z,15.54
2018-06-12T00:44:15.534Z,15.53
2018-06-12T00:46:44.437Z,15.56
2018-06-12T00:49:12.176Z,15.58
2018-06-12T00:51:41.075Z,15.58
2018-06-12T00:54:09.399Z,15.58
2018-06-12T00:56:46.527Z,15.60
2018-06-12T00:59:14.273Z,15.61
2018-06-12T01:01:42.589Z,15.63
2018-06-12T01:04:11.487Z,15.67
2018-06-12T01:06:39.813Z,15.71
2018-06-12T01:09:08.117Z,15.83
2018-06-12T01:11:36.465Z,15.95
2018-06-12T01:14:04.781Z,16.03
2018-06-12T01:16:33.158Z,16.05
2018-06-12T01:19:00.903Z,16.02
2018-06-12T01:21:29.232Z,15.98
2018-06-12T01:23:58.141Z,15.85
2018-06-12T01:26:26.458Z,15.80
2018-06-12T01:28:54.201Z,15.75
2018-06-12T01:31:23.089Z,15.68
2018-06-12T01:33:51.420Z,15.63
2018-06-12T01:36:19.736Z,15.61
2018-06-12T01:38:47.474Z,15.61
2018-06-12T01:41:16.377Z,15.61
2018-06-12T01:43:44.702Z,15.62
2018-06-12T01:46:13.021Z,15.66
2018-06-12T01:48:41.340Z,15.74
2018-06-12T01:51:09.882Z,15.73
2018-06-12T01:53:37.973Z,15.68
2018-06-12T01:56:06.293Z,15.68
2018-06-12T01:58:34.613Z,15.75
2018-06-12T02:01:02.646Z,15.80
2018-06-12T02:03:31.572Z,15.80
2018-06-12T02:05:59.321Z,15.83
2018-06-12T02:08:28.215Z,15.86
2018-06-12T02:10:56.534Z,15.90
2018-06-12T02:13:24.852Z,15.91
2018-06-12T02:15:52.600Z,15.94
2018-06-12T02:18:21.522Z,15.96
2018-06-12T02:20:49.825Z,15.98
2018-06-12T02:23:18.144Z,16.03
2018-06-12T02:25:45.886Z,16.08
2018-06-12T02:28:14.792Z,16.05
2018-06-12T02:30:43.112Z,16.07
2018-06-12T02:33:11.423Z,16.13
2018-06-12T02:35:39.739Z,16.16
2018-06-12T02:38:07.483Z,16.16
2018-06-12T02:40:36.387Z,16.15
2018-06-12T02:43:04.706Z,16.12
2018-06-12T02:45:33.034Z,16.11
2018-06-12T02:48:01.354Z,16.07
2018-06-12T02:50:29.681Z,16.02
2018-06-12T02:52:57.417Z,15.99
2018-06-12T02:55:25.915Z,15.97
2018-06-12T02:57:54.631Z,15.96
2018-06-12T03:00:22.983Z,15.98
2018-06-12T03:02:50.723Z,15.97
2018-06-12T03:05:19.617Z,15.98
2018-06-12T03:07:47.355Z,16.01
2018-06-12T03:10:16.253Z,16.05
2018-06-12T03:12:44.575Z,16.07
2018-06-12T03:15:12.907Z,16.06
2018-06-12T03:17:41.230Z,16.08
2018-06-12T03:20:09.858Z,16.11
2018-06-12T03:22:37.845Z,16.15
2018-06-12T03:25:06.740Z,16.23
2018-06-12T03:27:35.063Z,16.34
2018-06-12T03:30:02.800Z,16.43
2018-06-12T03:32:31.708Z,16.51
2018-06-12T03:35:00.027Z,16.50
2018-06-12T03:37:28.342Z,16.57
2018-06-12T03:39:56.664Z,16.61
2018-06-12T03:42:24.990Z,16.62
2018-06-12T03:44:53.309Z,16.64
2018-06-12T03:47:21.114Z,16.64
2018-06-12T03:49:49.958Z,16.59
2018-06-12T03:52:18.313Z,16.55
2018-06-12T03:54:46.019Z,16.53
2018-06-12T03:57:14.924Z,16.51
2018-06-12T03:59:43.237Z,16.51
2018-06-12T04:02:10.978Z,16.52
2018-06-12T04:04:39.869Z,16.51
2018-06-12T04:07:08.190Z,16.54
2018-06-12T04:09:35.930Z,16.50
2018-06-12T04:12:04.473Z,16.53
2018-06-12T04:14:33.171Z,16.54
2018-06-12T04:17:01.493Z,16.57
2018-06-12T04:19:29.248Z,16.53
2018-06-12T04:21:57.595Z,16.50
2018-06-12T04:24:26.494Z,16.47
2018-06-12T04:26:54.819Z,16.50
2018-06-12T04:29:23.146Z,16.53
2018-06-12T04:31:51.466Z,16.47
2018-06-12T04:34:19.220Z,16.43
2018-06-12T04:36:47.538Z,16.40
2018-06-12T04:39:16.440Z,16.43
2018-06-12T04:41:44.753Z,16.41
2018-06-12T04:44:13.091Z,16.41
2018-06-12T04:46:41.409Z,16.44
2018-06-12T04:49:09.725Z,16.44
2018-06-12T04:51:38.062Z,16.43
2018-06-12T04:54:06.383Z,16.42
2018-06-12T04:56:34.702Z,16.34
2018-06-12T04:59:03.039Z,16.37
2018-06-12T05:01:31.377Z,16.39
2018-06-12T05:03:59.705Z,16.41
2018-06-12T05:06:28.039Z,16.41
2018-06-12T05:08:55.785Z,16.46
2018-06-12T05:11:24.111Z,16.50
2018-06-12T05:13:53.012Z,16.47
2018-06-12T05:16:21.360Z,16.49
2018-06-12T05:18:49.704Z,16.53
2018-06-12T05:21:18.824Z,16.55
2018-06-12T05:23:47.436Z,16.54
2018-06-12T05:26:15.561Z,16.52
2018-06-12T05:28:43.361Z,16.62
2018-06-12T05:31:12.271Z,16.67
2018-06-12T05:33:40.583Z,16.77
2018-06-12T05:36:08.898Z,16.80
2018-06-12T05:38:36.728Z,16.89
2018-06-12T05:41:05.569Z,17.05
2018-06-12T05:43:34.576Z,17.25
2018-06-12T05:46:03.186Z,17.26
2018-06-12T05:48:31.520Z,17.23
2018-06-12T05:50:59.855Z,17.23
2018-06-12T05:53:28.193Z,17.29
2018-06-12T05:55:56.035Z,17.41
2018-06-12T05:58:25.069Z,17.45
2018-06-12T06:00:53.166Z,17.51
2018-06-12T06:03:21.493Z,17.55
2018-06-12T06:05:49.847Z,17.62
2018-06-12T06:08:18.184Z,17.64
2018-06-12T06:10:46.496Z,17.66
2018-06-12T06:13:14.827Z,17.62
2018-06-12T06:15:43.166Z,17.72
2018-06-12T06:18:11.505Z,17.77
2018-06-12T06:20:39.829Z,17.86
2018-06-12T06:23:08.223Z,17.88
2018-06-12T06:25:36.610Z,17.85
2018-06-12T06:28:04.951Z,17.83
2018-06-12T06:30:33.279Z,17.79
2018-06-12T06:33:01.431Z,17.77
2018-06-12T06:35:29.931Z,17.80
2018-06-12T06:37:58.257Z,17.77
2018-06-12T06:40:26.654Z,17.82
2018-06-12T06:42:55.015Z,17.83
2018-06-12T06:45:23.323Z,17.85
2018-06-12T06:47:51.662Z,17.82
2018-06-12T06:50:19.423Z,17.85
2018-06-12T06:52:48.323Z,17.84
2018-06-12T06:55:16.705Z,17.89
2018-06-12T06:57:44.414Z,17.96
2018-06-12T07:00:13.324Z,17.94
2018-06-12T07:02:41.654Z,17.89
2018-06-12T07:05:10.007Z,17.91
2018-06-12T07:07:37.741Z,17.92
2018-06-12T07:10:06.655Z,17.91
2018-06-12T07:12:34.993Z,18.00
2018-06-12T07:15:02.762Z,17.95
2018-06-12T07:17:31.640Z,17.98
2018-06-12T07:19:59.426Z,17.97
2018-06-12T07:22:28.281Z,17.80
2018-06-12T07:24:56.609Z,17.66
2018-06-12T07:27:24.994Z,17.61
2018-06-12T07:29:53.428Z,17.55
2018-06-12T07:32:21.764Z,17.44
2018-06-12T07:34:50.075Z,17.44
2018-06-12T07:37:18.393Z,17.50
2018-06-12T07:39:46.726Z,17.54
2018-06-12T07:42:15.269Z,17.63
2018-06-12T07:44:42.786Z,17.70
2018-06-12T07:47:11.686Z,17.80
2018-06-12T07:49:40.010Z,17.84
2018-06-12T07:52:08.332Z,17.91
2018-06-12T07:54:36.672Z,18.00
2018-06-12T07:57:04.429Z,18.09
2018-06-12T07:59:33.326Z,18.10
2018-06-12T08:02:01.648Z,18.08
2018-06-12T08:04:30.230Z,18.14
2018-06-12T08:06:57.780Z,18.21
2018-06-12T08:09:26.672Z,18.14
2018-06-12T08:11:55.012Z,18.25
2018-06-12T08:14:23.350Z,18.34
2018-06-12T08:16:51.697Z,18.45
2018-06-12T08:19:19.457Z,18.63
2018-06-12T08:21:48.362Z,18.74
2018-06-12T08:24:16.697Z,18.73
2018-06-12T08:26:44.437Z,18.72
2018-06-12T08:29:13.390Z,18.72
2018-06-12T08:31:41.742Z,18.72
2018-06-12T08:34:10.077Z,18.69
2018-06-12T08:36:37.821Z,18.52
2018-06-12T08:39:06.740Z,18.51
2018-06-12T08:41:35.091Z,18.54
2018-06-12T08:44:03.408Z,18.56
2018-06-12T08:46:31.798Z,18.61
2018-06-12T08:48:59.496Z,18.73
2018-06-12T08:51:27.848Z,18.72
2018-06-12T08:53:56.762Z,18.71
2018-06-12T08:56:25.091Z,18.73
2018-06-12T08:58:53.432Z,18.79
2018-06-12T09:01:21.740Z,18.61
2018-06-12T09:03:50.073Z,18.62
2018-06-12T09:06:18.649Z,18.61
2018-06-12T09:08:46.779Z,18.63
2018-06-12T09:11:14.535Z,18.58
2018-06-12T09:13:43.291Z,18.52
2018-06-12T09:16:11.791Z,18.38
2018-06-12T09:18:40.129Z,18.29
2018-06-12T09:21:08.444Z,18.43
2018-06-12T09:23:36.194Z,18.62
2018-06-12T09:26:05.088Z,18.69
2018-06-12T09:28:32.837Z,18.70
2018-06-12T09:31:02.012Z,18.56
2018-06-12T09:33:30.114Z,18.51
2018-06-12T09:35:58.445Z,18.53
2018-06-12T09:38:26.769Z,18.54
2018-06-12T09:40:55.107Z,18.62
2018-06-12T09:43:23.453Z,18.74
2018-06-12T09:45:51.201Z,18.86
2018-06-12T09:48:19.626Z,18.99
2018-06-12T09:50:48.456Z,19.03
2018-06-12T09:53:16.775Z,19.11
2018-06-12T09:55:45.131Z,18.90
2018-06-12T09:58:13.446Z,18.78
2018-06-12T10:00:42.636Z,18.72
2018-06-12T10:03:12.600Z,18.59
2018-06-12T10:05:40.857Z,18.51
2018-06-12T10:08:08.643Z,18.39
2018-06-12T10:10:37.573Z,18.31
2018-06-12T10:13:05.894Z,18.19
2018-06-12T10:15:38.722Z,18.18
2018-06-12T10:18:07.049Z,18.31
2018-06-12T10:20:35.958Z,18.55
2018-06-12T10:23:04.350Z,18.78
2018-06-12T10:25:32.100Z,18.90
2018-06-12T10:28:01.002Z,19.05
2018-06-12T10:30:29.764Z,19.00
2018-06-12T10:32:58.461Z,18.99
2018-06-12T10:35:26.572Z,19.11
2018-06-12T10:37:54.930Z,19.15
2018-06-12T10:40:23.746Z,19.24
2018-06-12T10:42:53.162Z,19.40
2018-06-12T10:45:21.472Z,19.55
2018-06-12T10:47:50.888Z,19.52
2018-06-12T10:50:19.249Z,19.57
2018-06-12T10:52:48.032Z,19.40
2018-06-12T10:55:16.122Z,19.27
2018-06-12T10:57:44.669Z,19.28
2018-06-12T11:00:12.197Z,19.37
2018-06-12T11:02:43.290Z,19.37
2018-06-12T11:05:10.741Z,19.39
2018-06-12T11:07:40.317Z,19.37
2018-06-12T11:10:09.350Z,19.38
2018-06-12T11:12:37.674Z,19.42
2018-06-12T11:15:05.552Z,19.32
2018-06-12T11:17:34.371Z,19.20
2018-06-12T11:20:02.924Z,19.11
2018-06-12T11:22:31.043Z,19.00
2018-06-12T11:24:59.374Z,19.12
2018-06-12T11:27:27.720Z,19.26
2018-06-12T11:29:56.041Z,19.42
2018-06-12T11:32:26.349Z,19.64
2018-06-12T11:34:53.253Z,19.79
2018-06-12T11:37:24.725Z,19.96
2018-06-12T11:39:51.850Z,20.13
2018-06-12T11:42:20.176Z,20.19
2018-06-12T11:44:48.516Z,20.21
2018-06-12T11:47:16.863Z,20.34
2018-06-12T11:49:46.045Z,20.41
2018-06-12T11:52:14.360Z,20.47
2018-06-12T11:54:43.430Z,20.55
2018-06-12T11:57:11.586Z,20.56
2018-06-12T11:59:39.931Z,20.56
2018-06-12T12:02:07.695Z,20.56
2018-06-12T12:04:36.612Z,20.51
2018-06-12T12:07:04.930Z,20.54
2018-06-12T12:09:32.679Z,20.54
2018-06-12T12:12:01.057Z,20.60
2018-06-12T12:14:30.184Z,20.60
2018-06-12T12:16:58.537Z,20.66
2018-06-12T12:19:26.834Z,20.78
2018-06-12T12:21:55.158Z,20.90
2018-06-12T12:24:22.939Z,21.00
2018-06-12T12:26:52.012Z,20.98
2018-06-12T12:29:20.349Z,21.05
2018-06-12T12:31:48.700Z,21.06
2018-06-12T12:34:17.677Z,21.00
2018-06-12T12:36:46.124Z,21.04
2018-06-12T12:39:14.443Z,21.09
2018-06-12T12:41:42.323Z,21.22
2018-06-12T12:44:11.375Z,21.29
2018-06-12T12:46:39.722Z,21.34
2018-06-12T12:49:07.545Z,21.34
2018-06-12T12:51:36.390Z,21.28
2018-06-12T12:54:04.718Z,21.08
2018-06-12T12:56:33.769Z,20.81
2018-06-12T12:59:01.374Z,20.70
2018-06-12T13:01:29.128Z,20.69
2018-06-12T13:03:58.025Z,20.68
2018-06-12T13:06:26.381Z,20.55
2018-06-12T13:08:54.118Z,20.38
2018-06-12T13:11:22.826Z,20.36
2018-06-12T13:13:52.349Z,20.37
2018-06-12T13:16:20.396Z,20.37
2018-06-12T13:18:48.124Z,20.37
2018-06-12T13:21:17.038Z,20.38
2018-06-12T13:23:45.596Z,20.35
2018-06-12T13:26:13.922Z,20.31
2018-06-12T13:28:42.268Z,20.29
2018-06-12T13:31:11.001Z,20.23
2018-06-12T13:33:39.105Z,20.13
2018-06-12T13:36:07.432Z,20.12
2018-06-12T13:38:35.819Z,20.16
2018-06-12T13:41:04.164Z,20.23
2018-06-12T13:43:32.746Z,20.25
2018-06-12T13:46:01.074Z,20.36
2018-06-12T13:48:30.510Z,20.48
2018-06-12T13:50:57.772Z,20.52
2018-06-12T13:53:26.126Z,20.65
2018-06-12T13:55:54.490Z,20.90
2018-06-12T13:58:22.242Z,21.29
2018-06-12T14:00:51.154Z,21.89
2018-06-12T14:03:18.906Z,22.02
2018-06-12T14:05:47.250Z,22.05
2018-06-12T14:08:16.150Z,22.06
2018-06-12T14:10:44.491Z,22.01
2018-06-12T14:13:12.828Z,21.93
2018-06-12T14:15:40.574Z,21.78
2018-06-12T14:18:08.930Z,21.60
2018-06-12T14:20:37.878Z,21.51
2018-06-12T14:23:06.185Z,21.43
2018-06-12T14:25:34.512Z,21.41
2018-06-12T14:28:02.834Z,21.41
2018-06-12T14:30:30.598Z,21.49
2018-06-12T14:32:59.503Z,21.50
2018-06-12T14:35:27.254Z,21.52
2018-06-12T14:37:56.178Z,21.49
2018-06-12T14:40:25.655Z,21.49
2018-06-12T14:42:53.960Z,21.62
2018-06-12T14:45:22.405Z,21.67
2018-06-12T14:47:51.021Z,21.71
2018-06-12T14:50:19.355Z,21.68
2018-06-12T14:52:49.085Z,21.63
2018-06-12T14:55:18.779Z,21.55
2018-06-12T14:57:46.931Z,21.57
2018-06-12T15:00:15.422Z,21.58
2018-06-12T15:02:43.756Z,21.53
2018-06-12T15:05:12.132Z,21.46
2018-06-12T15:07:40.664Z,21.38
2018-06-12T15:10:09.791Z,21.31
2018-06-12T15:12:38.140Z,21.31
2018-06-12T15:15:06.470Z,21.29
2018-06-12T15:17:34.204Z,21.23
2018-06-12T15:20:03.117Z,21.12
2018-06-12T15:22:31.435Z,21.05
2018-06-12T15:24:59.193Z,20.99
2018-06-12T15:27:28.118Z,20.90
2018-06-12T15:29:56.457Z,20.87
2018-06-12T15:32:25.850Z,20.85
2018-06-12T15:34:54.187Z,20.84
2018-06-12T15:37:22.504Z,20.74
2018-06-12T15:39:50.842Z,20.63
2018-06-12T15:42:19.441Z,20.57
2018-06-12T15:44:47.614Z,20.53
2018-06-12T15:47:15.891Z,20.52
2018-06-12T15:49:44.210Z,20.49
2018-06-12T15:55:23.296Z,20.30
2018-06-12T15:57:53.552Z,20.18
2018-06-12T16:00:32.175Z,20.10
2018-06-12T16:06:17.541Z,20.10
2018-06-12T16:17:40.329Z,20.25
2018-06-12T16:20:32.543Z,20.22
2018-06-12T16:26:19.135Z,20.08
2018-06-12T16:28:57.839Z,20.02
2018-06-12T16:31:33.774Z,19.92
2018-06-12T16:37:27.265Z,19.89
2018-06-12T16:40:07.279Z,19.89
2018-06-12T16:42:41.632Z,19.90
2018-06-12T16:45:24.042Z,19.92
2018-06-12T16:48:14.732Z,19.93
2018-06-12T16:51:01.412Z,19.91
2018-06-12T16:53:38.473Z,19.91
2018-06-12T16:56:15.891Z,19.88
2018-06-12T16:58:59.037Z,19.91
2018-06-12T17:01:27.769Z,19.93
2018-06-12T17:03:55.580Z,19.89
2018-06-12T17:06:24.489Z,19.86
2018-06-12T17:08:52.826Z,19.81
2018-06-12T17:11:20.567Z,19.76
2018-06-12T17:13:49.475Z,19.71
2018-06-12T17:16:17.803Z,19.66
2018-06-12T17:18:46.129Z,19.63
2018-06-12T17:21:14.446Z,19.63
2018-06-12T17:23:42.784Z,19.65
2018-06-12T17:26:10.527Z,19.64
2018-06-12T17:28:39.426Z,19.65
2018-06-12T17:31:08.033Z,19.62
2018-06-12T17:33:35.778Z,19.58
2018-06-12T17:36:04.682Z,19.59
2018-06-12T17:38:33.038Z,19.59
2018-06-12T17:41:01.386Z,19.58
2018-06-12T17:43:29.809Z,19.60
2018-06-12T17:45:58.798Z,19.64
2018-06-12T17:48:27.659Z,19.62
2018-06-12T17:50:56.760Z,19.56
2018-06-12T17:53:25.763Z,19.49
2018-06-12T17:55:55.798Z,19.48
2018-06-12T17:58:26.843Z,19.53
2018-06-12T18:00:57.453Z,19.60
2018-06-12T18:03:26.493Z,19.65
2018-06-12T18:05:55.462Z,19.67
2018-06-12T18:08:24.376Z,19.69
2018-06-12T18:10:54.066Z,19.63
2018-06-12T18:13:23.727Z,19.58
2018-06-12T18:15:53.500Z,19.56
2018-06-12T18:18:22.181Z,19.53
2018-06-12T18:20:52.440Z,19.48
2018-06-12T18:23:21.123Z,19.42
2018-06-12T18:25:49.967Z,19.43
2018-06-12T18:28:18.837Z,19.38
2018-06-12T18:30:47.374Z,19.36
2018-06-12T18:33:15.139Z,19.37
2018-06-12T18:35:44.218Z,19.41
2018-06-12T18:38:12.536Z,19.40
2018-06-12T18:40:40.271Z,19.37
2018-06-12T18:43:09.172Z,19.33
2018-06-12T18:45:37.590Z,19.31
2018-06-12T18:48:09.502Z,19.24
2018-06-12T18:50:37.830Z,19.25
2018-06-12T18:53:06.167Z,19.20
2018-06-12T18:55:33.909Z,19.15
2018-06-12T18:58:03.048Z,19.14
2018-06-12T19:00:31.213Z,19.13
2018-06-12T19:02:59.507Z,19.07
2018-06-12T19:05:27.884Z,19.13
2018-06-12T19:07:56.213Z,19.20
2018-06-12T19:10:24.559Z,19.16
2018-06-12T19:12:52.872Z,19.11
2018-06-12T19:15:21.228Z,19.08
2018-06-12T19:17:49.564Z,19.04
2018-06-12T19:20:17.900Z,19.00
2018-06-12T19:22:45.658Z,18.96
2018-06-12T19:25:14.693Z,18.93
2018-06-12T19:27:43.030Z,18.90
2018-06-12T19:30:11.385Z,18.92
2018-06-12T19:32:39.745Z,18.88
2018-06-12T19:35:07.517Z,18.83
2018-06-12T19:37:36.442Z,18.76
2018-06-12T19:40:04.794Z,18.76
2018-06-12T19:42:33.266Z,18.76
2018-06-12T19:45:01.908Z,18.74
2018-06-12T19:47:31.150Z,18.80
2018-06-12T19:49:59.486Z,18.71
2018-06-12T19:52:27.823Z,18.65
2018-06-12T19:54:56.155Z,18.71
2018-06-12T19:57:24.481Z,18.69
2018-06-12T19:59:52.858Z,18.61
2018-06-12T20:02:21.218Z,18.54
2018-06-12T20:04:49.552Z,18.51
2018-06-12T20:07:17.885Z,18.41
2018-06-12T20:09:46.216Z,18.37
2018-06-12T20:12:14.539Z,18.36
2018-06-12T20:14:42.312Z,18.36
2018-06-12T20:17:11.217Z,18.38
2018-06-12T20:19:39.012Z,18.39
2018-06-12T20:22:07.317Z,18.39
2018-06-12T20:24:35.650Z,18.35
2018-06-12T20:27:04.547Z,18.23
2018-06-12T20:29:32.878Z,18.11
2018-06-12T20:32:01.201Z,18.08
2018-06-12T20:34:29.529Z,18.00
2018-06-12T20:36:57.280Z,17.93
2018-06-12T20:39:26.185Z,17.76
2018-06-12T20:41:54.011Z,17.64
2018-06-12T20:44:22.937Z,17.58
2018-06-12T20:46:51.277Z,17.59
2018-06-12T20:49:19.623Z,17.57
2018-06-12T20:51:49.198Z,17.57
2018-06-12T20:54:29.938Z,17.50
2018-06-12T21:00:20.438Z,17.41
2018-06-12T21:03:05.686Z,17.51
2018-06-12T21:08:24.865Z,17.65
2018-06-12T21:11:01.253Z,17.53
2018-06-12T21:13:51.897Z,17.39
2018-06-12T21:16:30.240Z,17.22
2018-06-12T21:19:09.316Z,17.05
2018-06-12T21:33:53.791Z,16.52
2018-06-12T21:42:36.887Z,16.49
2018-06-12T21:45:24.114Z,16.47
2018-06-12T21:48:04.115Z,16.60
2018-06-12T21:50:42.281Z,16.72
2018-06-12T21:53:22.679Z,16.82
2018-06-12T21:55:59.273Z,16.88
2018-06-12T21:58:39.024Z,16.92
2018-06-12T22:01:16.289Z,16.88
2018-06-12T22:06:54.607Z,16.81
2018-06-12T22:09:32.871Z,16.78
2018-06-12T22:12:09.091Z,16.80
2018-06-12T22:14:46.255Z,16.80
2018-06-12T22:17:26.520Z,16.77
2018-06-12T22:20:20.255Z,16.77
2018-06-12T22:22:59.216Z,16.76
2018-06-12T22:25:43.241Z,16.69
2018-06-12T22:28:20.513Z,16.65
2018-06-12T22:31:07.514Z,16.63
2018-06-12T22:33:50.236Z,16.63
2018-06-12T22:36:27.362Z,16.65
2018-06-12T22:39:04.251Z,16.55
2018-06-12T22:41:40.989Z,16.44
2018-06-12T22:44:11.933Z,16.37
2018-06-12T22:47:04.367Z,16.33
2018-06-12T22:49:41.133Z,16.29
2018-06-12T22:52:18.269Z,16.31
2018-06-12T22:54:55.555Z,16.33
2018-06-12T22:57:44.103Z,16.38
2018-06-12T23:00:20.853Z,16.32
2018-06-12T23:02:55.913Z,16.29
2018-06-12T23:05:51.553Z,16.28
2018-06-12T23:08:28.918Z,16.20
2018-06-12T23:11:09.209Z,16.17
2018-06-12T23:13:45.530Z,16.18
2018-06-12T23:19:38.540Z,16.11
2018-06-12T23:31:10.278Z,16.04
2018-06-12T23:33:49.011Z,15.95
2018-06-12T23:39:26.080Z,16.04
2018-06-12T23:42:15.887Z,16.09
2018-06-12T23:45:05.183Z,16.11
2018-06-12T23:47:47.346Z,16.20
2018-06-12T23:50:21.993Z,16.23
2018-06-12T23:52:52.144Z,16.26
2018-06-12T23:55:54.827Z,16.25
2018-06-12T23:58:30.749Z,16.15
